Map

Track Data

SID SEASON NUMBER BASIN SUBBASIN NAME ISO_TIME NATURE LAT LON WMO_WIND WMO_PRES WMO_AGENCY TRACK_TYPE DIST2LAND LANDFALL IFLAG USA_AGENCY USA_ATCF_ID USA_LAT USA_LON USA_RECORD USA_STATUS USA_WIND USA_PRES USA_SSHS USA_R34_NE USA_R34_SE USA_R34_SW USA_R34_NW USA_R50_NE USA_R50_SE USA_R50_SW USA_R50_NW USA_R64_NE USA_R64_SE USA_R64_SW USA_R64_NW USA_POCI USA_ROCI USA_RMW USA_EYE TOKYO_LAT TOKYO_LON TOKYO_GRADE TOKYO_WIND TOKYO_PRES TOKYO_R50_DIR TOKYO_R50_LONG TOKYO_R50_SHORT TOKYO_R30_DIR TOKYO_R30_LONG TOKYO_R30_SHORT TOKYO_LAND CMA_LAT CMA_LON CMA_CAT CMA_WIND CMA_PRES HKO_LAT HKO_LON HKO_CAT HKO_WIND HKO_PRES NEWDELHI_LAT NEWDELHI_LON NEWDELHI_GRADE NEWDELHI_WIND NEWDELHI_PRES NEWDELHI_CI NEWDELHI_DP NEWDELHI_POCI REUNION_LAT REUNION_LON REUNION_TYPE REUNION_WIND REUNION_PRES REUNION_TNUM REUNION_CI REUNION_RMW REUNION_R34_NE REUNION_R34_SE REUNION_R34_SW REUNION_R34_NW REUNION_R50_NE REUNION_R50_SE REUNION_R50_SW REUNION_R50_NW REUNION_R64_NE REUNION_R64_SE REUNION_R64_SW REUNION_R64_NW BOM_LAT BOM_LON BOM_TYPE BOM_WIND BOM_PRES BOM_TNUM BOM_CI BOM_RMW BOM_R34_NE BOM_R34_SE BOM_R34_SW BOM_R34_NW BOM_R50_NE BOM_R50_SE BOM_R50_SW BOM_R50_NW BOM_R64_NE BOM_R64_SE BOM_R64_SW BOM_R64_NW BOM_ROCI BOM_POCI BOM_EYE BOM_POS_METHOD BOM_PRES_METHOD NADI_LAT NADI_LON NADI_CAT NADI_WIND NADI_PRES WELLINGTON_LAT WELLINGTON_LON WELLINGTON_WIND WELLINGTON_PRES DS824_LAT DS824_LON DS824_STAGE DS824_WIND DS824_PRES TD9636_LAT TD9636_LON TD9636_STAGE TD9636_WIND TD9636_PRES TD9635_LAT TD9635_LON TD9635_WIND TD9635_PRES TD9635_ROCI NEUMANN_LAT NEUMANN_LON NEUMANN_CLASS NEUMANN_WIND NEUMANN_PRES MLC_LAT MLC_LON MLC_CLASS MLC_WIND MLC_PRES USA_GUST BOM_GUST BOM_GUST_PER REUNION_GUST REUNION_GUST_PER USA_SEAHGT USA_SEARAD_NE USA_SEARAD_SE USA_SEARAD_SW USA_SEARAD_NW STORM_SPEED STORM_DIR
1960197S05098 1961 36 SI WA NOT_NAMED 1960-07-15 00:00:00 TS -5.00000 98.0000 bom main 378 378 O_____O__OO___ jtwc_sh SH011961 -5.00000 98.0000 -1 -5.00000 98.0000 -5.00000 98.0000 TC -5.00000 98.0000 7 7 225
1960197S05098 1961 36 SI WA NOT_NAMED 1960-07-15 03:00:00 TS -5.24984 97.7503 main 407 407 P_____P__PP___ SH011961 -5.25253 97.7476 -1 -5.25253 97.7476 -5.25253 97.7476 TC -5.23912 97.7611 7 7 225
1960197S05098 1961 36 SI WA NOT_NAMED 1960-07-15 06:00:00 TS -5.49651 97.5035 bom main 451 451 O_____O__OP___ jtwc_sh SH011961 -5.50000 97.5000 -1 -5.50000 97.5000 -5.50000 97.5000 TC -5.48256 97.5176 7 7 225
1960197S05098 1961 36 SI WA NOT_NAMED 1960-07-15 09:00:00 TS -5.74093 97.2590 main 480 480 P_____P__PP___ SH011961 -5.74248 97.2575 -1 -5.74248 97.2575 -5.74248 97.2575 TC -5.73472 97.2654 7 7 225
1960197S05098 1961 36 SI WA NOT_NAMED 1960-07-15 12:00:00 TS -6.00000 97.0000 bom main 525 525 O_____O__OO_O_ jtwc_sh SH011961 -6.00000 97.0000 -1 -6.00000 97.0000 -6.00000 97.0000 TC 25 -6.00000 97.0000 7 -6.00000 97.0000 TC 25 8 225
1960197S05098 1961 36 SI WA NOT_NAMED 1960-07-15 15:00:00 TS -6.29119 96.7086 main 570 570 P_____P__PP_P_ SH011961 -6.29250 96.7075 -1 -6.29250 96.7075 -6.29250 96.7075 TC 25 -6.28154 96.7184 7 -6.30004 96.6976 TC 25 8 225
1960197S05098 1961 36 SI WA NOT_NAMED 1960-07-15 18:00:00 TS -6.59608 96.4039 bom main 615 615 O_____O__OP_O_ jtwc_sh SH011961 -6.60000 96.4000 -1 -6.60000 96.4000 -6.60000 96.4000 TC 25 -6.57746 96.4224 7 -6.60000 96.4000 TC 25 9 225
1960197S05098 1961 36 SI WA NOT_NAMED 1960-07-15 21:00:00 TS -6.89741 96.1087 main 660 660 P_____P__PP_P_ SH011961 -6.89997 96.1075 -1 -6.89997 96.1075 -6.89997 96.1075 TC 25 -6.88465 96.1152 7 -6.89997 96.1075 TC 22 9 225
1960197S05098 1961 36 SI WA NOT_NAMED 1960-07-16 00:00:00 TS -7.20000 95.8000 bom main 705 705 O_____O__OO_O_ jtwc_sh SH011961 -7.20000 95.8000 -1 -7.20000 95.8000 -7.20000 95.8000 TC 25 -7.20000 95.8000 7 -7.20000 95.8000 TC 20 9 227
1960197S05098 1961 36 SI WA NOT_NAMED 1960-07-16 03:00:00 TS -7.49402 95.4540 main 751 751 P_____P__PP_P_ SH011961 -7.49251 95.4500 -1 -7.49251 95.4500 -7.49251 95.4500 TC 25 -7.50157 95.4739 7 -7.49251 95.4500 TC 20 9 229
1960197S05098 1961 36 SI WA NOT_NAMED 1960-07-16 06:00:00 TS -7.80209 95.1071 bom main 802 802 O_____O__OP_O_ jtwc_sh SH011961 -7.80000 95.1000 -1 -7.80000 95.1000 -7.80000 95.1000 TC 25 -7.81252 95.1423 7 -7.80000 95.1000 TC 20 9 225
1960197S05098 1961 36 SI WA NOT_NAMED 1960-07-16 09:00:00 TS -8.13617 94.7961 main 849 849 P_____P__PP_P_ SH011961 -8.13496 94.7924 -1 -8.13496 94.7924 -8.13496 94.7924 TC 25 -8.14220 94.8145 7 -8.13496 94.7924 TC 22 9 221
1960197S05098 1961 36 SI WA NOT_NAMED 1960-07-16 12:00:00 TS -8.50000 94.5000 bom main 904 904 O_____O__OO_O_ jtwc_sh SH011961 -8.50000 94.5000 -1 -8.50000 94.5000 -8.50000 94.5000 TC 25 -8.50000 94.5000 7 -8.50000 94.5000 TC 25 10 219
1960197S05098 1961 36 SI WA NOT_NAMED 1960-07-16 15:00:00 TS -8.88280 94.1941 main 960 960 P_____P__PP_P_ SH011961 -8.88500 94.1925 -1 -8.88500 94.1925 -8.88500 94.1925 TC 25 -8.87185 94.2023 7 -8.88500 94.1925 TC 25 10 217
1960197S05098 1961 36 SI WA NOT_NAMED 1960-07-16 18:00:00 TS -9.29583 93.9033 bom main 1015 1015 O_____O__OP_O_ jtwc_sh SH011961 -9.30000 93.9000 -1 -9.30000 93.9000 -9.30000 93.9000 TC 25 -9.27498 93.9197 7 -9.30000 93.9000 TC 25 10 213
1960197S05098 1961 36 SI WA NOT_NAMED 1960-07-16 21:00:00 TS -9.73049 93.6440 main 1071 1071 P_____P__PP_P_ SH011961 -9.73497 93.6424 -1 -9.73497 93.6424 -9.73497 93.6424 TC 25 -9.71562 93.6522 7 -9.72747 93.6424 TC 25 10 209
1960197S05098 1961 36 SI WA NOT_NAMED 1960-07-17 00:00:00 TS -10.2000 93.4000 bom main 1130 1130 O_____O__OO_O_ jtwc_sh SH011961 -10.2000 93.4000 -1 -10.2000 93.4000 -10.2000 93.4000 TC 25 -10.2000 93.4000 7 -10.2000 93.4000 TC 25 11 208
1960197S05098 1961 36 SI WA NOT_NAMED 1960-07-17 03:00:00 TS -10.6731 93.1361 main 1194 1194 P_____P__PP_P_ SH011961 -10.6700 93.1424 -1 -10.6700 93.1424 -10.6700 93.1424 TC 25 -10.6308 93.1044 7 -10.7275 93.1425 TC 25 11 207
1960197S05098 1961 36 SI WA NOT_NAMED 1960-07-17 06:00:00 TS -11.2030 92.8886 bom main 1253 1253 O_____O__OP_O_ jtwc_sh SH011961 -11.2000 92.9000 -1 -11.2000 92.9000 -11.2000 92.9000 TC 25 -11.1183 92.8313 7 -11.3000 92.9000 TC 25 12 204
1960197S05098 1961 36 SI WA NOT_NAMED 1960-07-17 09:00:00 TS -11.7557 92.6551 main 1322 1322 P_____P__PP_P_ SH011961 -11.7526 92.6626 -1 -11.7526 92.6626 -11.7526 92.6626 TC 25 -11.7215 92.6175 7 -11.8026 92.6625 TC 25 14 196
1960197S05098 1961 36 SI WA NOT_NAMED 1960-07-17 12:00:00 TS -12.5000 92.5000 bom main 1400 1400 O_____O__OO_O_ jtwc_sh SH011961 -12.5000 92.5000 -1 -12.5000 92.5000 -12.5000 92.5000 TC 25 -12.5000 92.5000 7 -12.5000 92.5000 TC 25 18 187
1960197S05098 1961 36 SI WA NOT_NAMED 1960-07-17 15:00:00 TS -13.5692 92.4414 main 1513 1513 P_____P__PP_P_ SH011961 -13.5601 92.4329 -1 -13.5601 92.4329 -13.5601 92.4329 TC 25 -13.5648 92.4839 7 -13.6101 92.4329 TC 25 23 180
1960197S05098 1961 36 SI WA NOT_NAMED 1960-07-17 18:00:00 TS -14.8158 92.5117 bom main 1617 1617 O_____O__OP_O_ jtwc_sh SH011961 -14.8000 92.5000 -1 -14.8000 92.5000 -14.8000 92.5000 TC 25 -14.7950 92.5704 7 -14.9000 92.5000 TC 25 26 174
1960197S05098 1961 36 SI WA NOT_NAMED 1960-07-17 21:00:00 TS -16.0942 92.7165 main 1711 1711 P_____P__PP_P_ SH011961 -16.0875 92.7119 -1 -16.0875 92.7119 -16.0875 92.7119 TC 25 -16.0777 92.7468 7 -16.1375 92.7047 TC 27 25 169
1960197S05098 1961 36 SI WA NOT_NAMED 1960-07-18 00:00:00 TS -17.3000 93.0000 999 bom main 1771 1771 O_____O__OO_O_ jtwc_sh SH011961 -17.3000 93.0000 -1 -17.3000 93.0000 999 -17.3000 93.0000 TC 25 -17.3000 93.0000 7 -17.3000 93.0000 TC 30 22 167
1960197S05098 1961 36 SI WA NOT_NAMED 1960-07-18 03:00:00 TS -18.2553 93.2266 main 1830 1830 P_____P__PP_P_ SH011961 -18.2447 93.2136 -1 -18.2447 93.2136 -18.2447 93.2136 TC 25 -18.2583 93.2346 7 -18.2948 93.2707 TC 30 19 165
1960197S05098 1961 36 SI WA NOT_NAMED 1960-07-18 06:00:00 TS -19.1247 93.5247 bom main 1870 1870 O_____O__OP_O_ jtwc_sh SH011961 -19.1000 93.5000 -1 -19.1000 93.5000 -19.1000 93.5000 TC 25 -19.1480 93.5480 7 -19.2000 93.6000 TC 30 19 159
1960197S05098 1961 36 SI WA NOT_NAMED 1960-07-18 09:00:00 TS -20.0200 93.9358 main 1916 1916 P_____P__PP_P_ SH011961 -20.0047 93.9189 -1 -20.0047 93.9189 -20.0047 93.9189 TC 25 -20.0389 93.9621 7 -20.0621 93.9769 TC 30 21 154
1960197S05098 1961 36 SI WA NOT_NAMED 1960-07-18 12:00:00 TS -21.0000 94.5000 bom main 1963 1874 O_____O__OO_O_ jtwc_sh SH011961 -21.0000 94.5000 -1 -21.0000 94.5000 -21.0000 94.5000 TC 25 -21.0000 94.5000 7 -21.0000 94.5000 TC 30 25 150
1960197S05098 1961 36 SI WA NOT_NAMED 1960-07-18 15:00:00 TS -22.1588 95.2378 main 1872 1771 P_____P__PP_P_ SH011961 -22.1627 95.2477 -1 -22.1627 95.2477 -22.1627 95.2477 TC 25 -22.1468 95.1964 7 -22.1552 95.2399 TC 30 28 148
1960197S05098 1961 36 SI WA NOT_NAMED 1960-07-18 18:00:00 TS -23.3941 96.0864 bom main 1760 1656 O_____O__OP_O_ jtwc_sh SH011961 -23.4000 96.1000 -1 -23.4000 96.1000 -23.4000 96.1000 TC 25 -23.3649 96.0185 7 -23.4000 96.1000 TC 30 29 147
1960197S05098 1961 36 SI WA NOT_NAMED 1960-07-18 21:00:00 TS -24.6124 96.9496 main 1654 1548 P_____P__PP_P_ SH011961 -24.6149 96.9581 -1 -24.6149 96.9581 -24.6149 96.9581 TC 25 -24.6001 96.9071 7 -24.6149 96.9581 TC 30 29 147
1960197S05098 1961 36 SI WA NOT_NAMED 1960-07-19 00:00:00 TS -25.8000 97.8000 995 bom main 1547 1470 O_____O__OO_O_ jtwc_sh SH011961 -25.8000 97.8000 -1 -25.8000 97.8000 995 -25.8000 97.8000 TC 25 -25.8000 97.8000 7 -25.8000 97.8000 TC 30 27 148
1960197S05098 1961 36 SI WA NOT_NAMED 1960-07-19 03:00:00 TS -26.9305 98.5549 main 1460 1395 P_____P__PP_P_ SH011961 -26.9290 98.5523 -1 -26.9290 98.5523 -26.9290 98.5523 TC 25 -26.9378 98.5681 7 -26.9290 98.5523 TC 27 26 149
1960197S05098 1961 36 SI WA NOT_NAMED 1960-07-19 06:00:00 TS -28.0048 99.3055 bom main 1395 1332 O_____O__OP_O_ jtwc_sh SH011961 -28.0000 99.3000 -1 -28.0000 99.3000 -28.0000 99.3000 TC 25 -28.0290 99.3328 7 -28.0000 99.3000 TC 25 25 147
1960197S05098 1961 36 SI WA NOT_NAMED 1960-07-19 09:00:00 TS -29.0461 100.111 main 1332 1278 P_____P__PP_P_ SH011961 -29.0441 100.107 -1 -29.0441 100.107 -29.0441 100.107 TC 25 -29.0560 100.131 7 -29.0441 100.107 TC 25 25 143
1960197S05098 1961 36 SI WA NOT_NAMED 1960-07-19 12:00:00 TS -30.0000 101.000 bom main 1272 1210 O_____O__OO_O_ jtwc_sh SH011961 -30.0000 101.000 -1 -30.0000 101.000 -30.0000 101.000 TC 25 -30.0000 101.000 7 -30.0000 101.000 TC 25 24 138
1960197S05098 1961 36 SI WA NOT_NAMED 1960-07-19 15:00:00 TS -30.8466 102.012 main 1210 1143 P_____P__PP_P_ SH011961 -30.8446 102.014 -1 -30.8446 102.014 -30.8446 102.014 TC 25 -30.8566 102.003 7 -30.8446 102.014 TC 25 24 132
1960197S05098 1961 36 SI WA NOT_NAMED 1960-07-19 18:00:00 TS -31.6046 103.097 bom main 1134 1024 O_____O__OP_O_ jtwc_sh SH011961 -31.6000 103.100 -1 -31.6000 103.100 -31.6000 103.100 TC 25 -31.6276 103.080 7 -31.6000 103.100 TC 25 24 128
1960197S05098 1961 36 SI WA NOT_NAMED 1960-07-19 21:00:00 TS -32.3240 104.200 main 1015 911 P_____P__PP_P_ SH011961 -32.3219 104.202 -1 -32.3219 104.202 -32.3219 104.202 TC 25 -32.3345 104.191 7 -32.3219 104.202 TC 25 23 127
1960197S05098 1961 36 SI WA NOT_NAMED 1960-07-20 00:00:00 TS -33.0000 105.300 995 bom main 901 803 O_____O__OO_O_ jtwc_sh SH011961 -33.0000 105.300 -1 -33.0000 105.300 995 -33.0000 105.300 TC 25 -33.0000 105.300 7 -33.0000 105.300 TC 25 23 126
1960197S05098 1961 36 SI WA NOT_NAMED 1960-07-20 03:00:00 TS -33.6672 106.364 main 793 697 P_____P__PP_P_ SH011961 -33.6639 106.359 -1 -33.6639 106.359 -33.6639 106.359 TC 25 -33.6836 106.388 7 -33.6639 106.359 TC 25 22 127
1960197S05098 1961 36 SI WA NOT_NAMED 1960-07-20 06:00:00 TS -34.3051 107.411 bom main 697 609 O_____O__OP_O_ jtwc_sh SH011961 -34.3000 107.400 -1 -34.3000 107.400 -34.3000 107.400 TC 25 -34.3307 107.463 7 -34.3000 107.400 TC 25 22 126
1960197S05098 1961 36 SI WA NOT_NAMED 1960-07-20 09:00:00 TS -34.9246 108.475 main 600 530 P_____P__PP_P_ SH011961 -34.9219 108.466 -1 -34.9219 108.466 -34.9219 108.466 TC 25 -34.9373 108.506 7 -34.9223 108.481 TC 25 21 125
1960197S05098 1961 36 SI WA NOT_NAMED 1960-07-20 12:00:00 TS -35.5000 109.500 bom main 523 461 O_____O__OO_O_ jtwc_sh SH011961 -35.5000 109.500 -1 -35.5000 109.500 -35.5000 109.500 TC 25 -35.5000 109.500 7 -35.5000 109.500 TC 25 20 124
1960197S05098 1961 36 SI WA NOT_NAMED 1960-07-20 15:00:00 TS -36.0211 110.460 main 453 409 P_____P__PP_P_ SH011961 -36.0218 110.489 -1 -36.0218 110.489 -36.0218 110.489 TC 25 -36.0182 110.431 7 -36.0210 110.375 TC 22 18 124
1960197S05098 1961 36 SI WA NOT_NAMED 1960-07-20 18:00:00 TS -36.5001 111.352 bom main 408 386 O_____O__OP_O_ jtwc_sh SH011961 -36.5000 111.400 -1 -36.5000 111.400 -36.5000 111.400 TC 25 -36.5007 111.312 7 -36.5000 111.200 TC 20 17 124
1960197S05098 1961 36 SI WA NOT_NAMED 1960-07-20 21:00:00 TS -36.9564 112.189 main 390 378 P_____P__PP_P_ SH011961 -36.9559 112.223 -1 -36.9559 112.223 -36.9559 112.223 TC 25 -36.9580 112.161 7 -36.9569 112.077 TC 20 16 124
1960197S05098 1961 36 SI WA NOT_NAMED 1960-07-21 00:00:00 TS -37.4000 113.000 995 bom main 383 O_____O__OO_O_ jtwc_sh SH011961 -37.4000 113.000 -1 -37.4000 113.000 995 -37.4000 113.000 TC 25 -37.4000 113.000 7 -37.4000 113.000 TC 20 16 125

About IBTrACS Database

This database is a web-friendly format of International Best Track Archive for Climate Stewardship (IBTrACS), a global best track data archive curated by NOAA dating back to 1842.

Updated: 2021-11-26